sensor_id;sensor_type;location;lat;lon;timestamp;pressure;altitude;pressure_sealevel;temperature
49557;BMP280;35462;45.048;7.666;2023-03-03T00:00:00;98973.84;;;11.62
49557;BMP280;35462;45.048;7.666;2023-03-03T00:15:29;98974.94;;;11.38
49557;BMP280;35462;45.048;7.666;2023-03-03T00:30:45;98969.44;;;11.52
49557;BMP280;35462;45.048;7.666;2023-03-03T00:46:01;98952.41;;;11.50
49557;BMP280;35462;45.048;7.666;2023-03-03T01:01:18;98945.31;;;11.43
49557;BMP280;35462;45.048;7.666;2023-03-03T01:16:37;98938.66;;;11.32
49557;BMP280;35462;45.048;7.666;2023-03-03T01:31:53;98928.84;;;11.29
49557;BMP280;35462;45.048;7.666;2023-03-03T01:47:13;98917.13;;;11.26
49557;BMP280;35462;45.048;7.666;2023-03-03T02:02:30;98898.94;;;11.28
49557;BMP280;35462;45.048;7.666;2023-03-03T02:17:49;98888.88;;;11.16
49557;BMP280;35462;45.048;7.666;2023-03-03T02:33:06;98876.16;;;11.04
49557;BMP280;35462;45.048;7.666;2023-03-03T02:48:22;98869.78;;;11.02
49557;BMP280;35462;45.048;7.666;2023-03-03T03:03:38;98863.84;;;10.94
49557;BMP280;35462;45.048;7.666;2023-03-03T03:18:55;98853.72;;;10.86
49557;BMP280;35462;45.048;7.666;2023-03-03T03:34:11;98837.16;;;10.78
49557;BMP280;35462;45.048;7.666;2023-03-03T03:49:27;98836.41;;;10.78
49557;BMP280;35462;45.048;7.666;2023-03-03T04:04:45;98821.59;;;10.80
49557;BMP280;35462;45.048;7.666;2023-03-03T04:20:03;98820.53;;;10.78
49557;BMP280;35462;45.048;7.666;2023-03-03T04:35:19;98811.09;;;10.77
49557;BMP280;35462;45.048;7.666;2023-03-03T04:50:36;98818.69;;;10.75
49557;BMP280;35462;45.048;7.666;2023-03-03T05:05:53;98810.06;;;10.68
49557;BMP280;35462;45.048;7.666;2023-03-03T05:21:09;98801.16;;;10.55
49557;BMP280;35462;45.048;7.666;2023-03-03T05:36:25;98794.88;;;10.42
49557;BMP280;35462;45.048;7.666;2023-03-03T05:51:41;98804.38;;;10.36
49557;BMP280;35462;45.048;7.666;2023-03-03T06:06:56;98810.69;;;10.15
49557;BMP280;35462;45.048;7.666;2023-03-03T06:22:13;98795.63;;;10.09
49557;BMP280;35462;45.048;7.666;2023-03-03T06:37:28;98803.91;;;10.11
49557;BMP280;35462;45.048;7.666;2023-03-03T06:52:44;98813.94;;;10.30
49557;BMP280;35462;45.048;7.666;2023-03-03T07:08:00;98845.88;;;10.46
49557;BMP280;35462;45.048;7.666;2023-03-03T07:23:23;98849.31;;;10.76
49557;BMP280;35462;45.048;7.666;2023-03-03T07:38:41;98859.88;;;11.32
49557;BMP280;35462;45.048;7.666;2023-03-03T08:09:47;98857.66;;;12.38
49557;BMP280;35462;45.048;7.666;2023-03-03T08:25:05;98854.19;;;12.96
49557;BMP280;35462;45.048;7.666;2023-03-03T08:40:21;98870.22;;;13.08
49557;BMP280;35462;45.048;7.666;2023-03-03T08:55:38;98867.09;;;13.45
49557;BMP280;35462;45.048;7.666;2023-03-03T09:10:54;98865.09;;;13.33
49557;BMP280;35462;45.048;7.666;2023-03-03T09:56:59;98852.19;;;13.63
49557;BMP280;35462;45.048;7.666;2023-03-03T10:12:27;98861.03;;;14.05
49557;BMP280;35462;45.048;7.666;2023-03-03T11:14:41;98850.94;;;14.90
49557;BMP280;35462;45.048;7.666;2023-03-03T11:45:49;98812.34;;;15.28
49557;BMP280;35462;45.048;7.666;2023-03-03T12:16:57;98785.47;;;15.57
49557;BMP280;35462;45.048;7.666;2023-03-03T12:47:53;98755.13;;;15.85
49557;BMP280;35462;45.048;7.666;2023-03-03T13:18:54;98748.84;;;15.79
49557;BMP280;35462;45.048;7.666;2023-03-03T13:49:58;98731.69;;;15.89
49557;BMP280;35462;45.048;7.666;2023-03-03T14:20:53;98713.84;;;15.77
49557;BMP280;35462;45.048;7.666;2023-03-03T14:36:11;98709.13;;;15.90
49557;BMP280;35462;45.048;7.666;2023-03-03T14:51:44;98702.66;;;16.00
49557;BMP280;35462;45.048;7.666;2023-03-03T15:07:20;98697.94;;;16.04
49557;BMP280;35462;45.048;7.666;2023-03-03T15:22:48;98679.56;;;16.06
49557;BMP280;35462;45.048;7.666;2023-03-03T15:38:30;98691.72;;;16.06
49557;BMP280;35462;45.048;7.666;2023-03-03T15:54:08;98699.09;;;16.02
49557;BMP280;35462;45.048;7.666;2023-03-03T16:40:35;98716.84;;;15.88
49557;BMP280;35462;45.048;7.666;2023-03-03T17:26:59;98764.59;;;15.64
49557;BMP280;35462;45.048;7.666;2023-03-03T17:42:32;98781.63;;;15.58
49557;BMP280;35462;45.048;7.666;2023-03-03T18:44:29;98854.13;;;15.10
49557;BMP280;35462;45.048;7.666;2023-03-03T18:59:52;98872.13;;;15.06
49557;BMP280;35462;45.048;7.666;2023-03-03T19:46:27;98896.69;;;14.64
49557;BMP280;35462;45.048;7.666;2023-03-03T20:01:58;98916.44;;;14.50
49557;BMP280;35462;45.048;7.666;2023-03-03T20:33:09;98971.44;;;14.44
49557;BMP280;35462;45.048;7.666;2023-03-03T21:04:26;99001.94;;;14.28
49557;BMP280;35462;45.048;7.666;2023-03-03T21:19:43;99006.97;;;14.10
49557;BMP280;35462;45.048;7.666;2023-03-03T21:35:04;99026.75;;;14.09
49557;BMP280;35462;45.048;7.666;2023-03-03T21:50:21;99037.09;;;14.07
49557;BMP280;35462;45.048;7.666;2023-03-03T22:05:37;99042.88;;;14.02
49557;BMP280;35462;45.048;7.666;2023-03-03T22:20:52;99043.75;;;13.83
49557;BMP280;35462;45.048;7.666;2023-03-03T22:36:08;99053.03;;;13.75
49557;BMP280;35462;45.048;7.666;2023-03-03T22:51:24;99058.78;;;13.73
49557;BMP280;35462;45.048;7.666;2023-03-03T23:06:40;99069.50;;;13.70
49557;BMP280;35462;45.048;7.666;2023-03-03T23:21:58;99068.13;;;13.62
49557;BMP280;35462;45.048;7.666;2023-03-03T23:37:14;99074.53;;;13.49
49557;BMP280;35462;45.048;7.666;2023-03-03T23:52:29;99080.22;;;13.47
